sensor_id;sensor_type;location;lat;lon;timestamp;pressure;altitude;pressure_sealevel;temperature;humidity
22389;BME280;11362;48.102;11.620;2023-02-11T00:01:35;97025.94;;;23.10;27.40
22389;BME280;11362;48.102;11.620;2023-02-11T00:04:03;97025.94;;;23.10;27.76
22389;BME280;11362;48.102;11.620;2023-02-11T00:06:29;97016.84;;;23.09;27.70
22389;BME280;11362;48.102;11.620;2023-02-11T00:08:55;97022.00;;;23.11;27.41
22389;BME280;11362;48.102;11.620;2023-02-11T00:11:22;97018.44;;;23.10;27.76
22389;BME280;11362;48.102;11.620;2023-02-11T00:13:47;97016.03;;;23.09;27.58
22389;BME280;11362;48.102;11.620;2023-02-11T00:16:15;97016.84;;;23.09;27.78
22389;BME280;11362;48.102;11.620;2023-02-11T00:18:41;97021.59;;;23.09;27.21
22389;BME280;11362;48.102;11.620;2023-02-11T00:21:08;97025.16;;;23.09;27.42
22389;BME280;11362;48.102;11.620;2023-02-11T00:23:34;97031.50;;;23.10;27.36
22389;BME280;11362;48.102;11.620;2023-02-11T00:26:00;97029.91;;;23.09;27.51
22389;BME280;11362;48.102;11.620;2023-02-11T00:28:26;97024.34;;;23.09;27.66
22389;BME280;11362;48.102;11.620;2023-02-11T00:30:57;97027.13;;;23.09;27.35
22389;BME280;11362;48.102;11.620;2023-02-11T00:33:23;97022.75;;;23.08;27.45
22389;BME280;11362;48.102;11.620;2023-02-11T00:35:48;97016.84;;;23.09;27.69
22389;BME280;11362;48.102;11.620;2023-02-11T00:38:14;97016.03;;;23.09;27.53
22389;BME280;11362;48.102;11.620;2023-02-11T00:40:39;97018.00;;;23.08;27.50
22389;BME280;11362;48.102;11.620;2023-02-11T00:43:04;97011.69;;;23.08;27.83
22389;BME280;11362;48.102;11.620;2023-02-11T00:45:30;97010.50;;;23.09;27.82
22389;BME280;11362;48.102;11.620;2023-02-11T00:47:55;97005.78;;;23.09;27.49
22389;BME280;11362;48.102;11.620;2023-02-11T00:50:21;97009.69;;;23.08;27.70
22389;BME280;11362;48.102;11.620;2023-02-11T00:52:47;97003.34;;;23.08;28.03
22389;BME280;11362;48.102;11.620;2023-02-11T00:55:12;96998.59;;;23.08;27.46
22389;BME280;11362;48.102;11.620;2023-02-11T00:57:37;96999.41;;;23.09;27.39
22389;BME280;11362;48.102;11.620;2023-02-11T01:00:04;96992.28;;;23.08;27.94
22389;BME280;11362;48.102;11.620;2023-02-11T01:02:30;96989.50;;;23.08;27.77
22389;BME280;11362;48.102;11.620;2023-02-11T01:04:55;96997.81;;;23.08;27.35
22389;BME280;11362;48.102;11.620;2023-02-11T01:07:20;96992.28;;;23.08;27.81
22389;BME280;11362;48.102;11.620;2023-02-11T01:09:46;96992.28;;;23.08;27.67
22389;BME280;11362;48.102;11.620;2023-02-11T01:12:11;96989.09;;;23.06;27.73
22389;BME280;11362;48.102;11.620;2023-02-11T01:14:36;96986.31;;;23.06;27.71
22389;BME280;11362;48.102;11.620;2023-02-11T01:17:04;96989.88;;;23.06;27.55
22389;BME280;11362;48.102;11.620;2023-02-11T01:19:29;96991.84;;;23.06;27.50
22389;BME280;11362;48.102;11.620;2023-02-11T01:21:54;96989.09;;;23.06;27.17
22389;BME280;11362;48.102;11.620;2023-02-11T01:24:20;96989.88;;;23.06;27.98
22389;BME280;11362;48.102;11.620;2023-02-11T01:26:45;96990.22;;;23.05;27.57
22389;BME280;11362;48.102;11.620;2023-02-11T01:29:10;96997.41;;;23.06;27.92
22389;BME280;11362;48.102;11.620;2023-02-11T01:31:35;96989.88;;;23.06;27.44
22389;BME280;11362;48.102;11.620;2023-02-11T01:34:01;96983.53;;;23.06;28.04
22389;BME280;11362;48.102;11.620;2023-02-11T01:36:26;96983.53;;;23.06;27.71
22389;BME280;11362;48.102;11.620;2023-02-11T01:38:51;96984.31;;;23.06;27.85
22389;BME280;11362;48.102;11.620;2023-02-11T01:41:17;96987.44;;;23.05;27.12
22389;BME280;11362;48.102;11.620;2023-02-11T01:43:48;96990.22;;;23.05;27.58
22389;BME280;11362;48.102;11.620;2023-02-11T01:46:36;96986.66;;;23.04;27.42
22389;BME280;11362;48.102;11.620;2023-02-11T01:49:11;96979.13;;;23.05;27.20
22389;BME280;11362;48.102;11.620;2023-02-11T01:54:11;96984.69;;;23.05;27.64
22389;BME280;11362;48.102;11.620;2023-02-11T01:56:43;96989.09;;;23.06;27.73
22389;BME280;11362;48.102;11.620;2023-02-11T01:59:15;96991.03;;;23.05;27.75
22389;BME280;11362;48.102;11.620;2023-02-11T02:01:44;96991.41;;;23.04;27.24
22389;BME280;11362;48.102;11.620;2023-02-11T02:04:14;96993.00;;;23.05;27.52
22389;BME280;11362;48.102;11.620;2023-02-11T02:06:48;96986.66;;;23.04;27.55
22389;BME280;11362;48.102;11.620;2023-02-11T02:09:20;96978.00;;;23.06;27.50
22389;BME280;11362;48.102;11.620;2023-02-11T02:11:47;96984.69;;;23.05;27.79
22389;BME280;11362;48.102;11.620;2023-02-11T02:14:13;96981.91;;;23.05;27.61
22389;BME280;11362;48.102;11.620;2023-02-11T02:16:38;96983.53;;;23.06;27.88
22389;BME280;11362;48.102;11.620;2023-02-11T02:19:22;96974.78;;;23.04;27.32
22389;BME280;11362;48.102;11.620;2023-02-11T02:25:01;96959.72;;;23.05;27.36
22389;BME280;11362;48.102;11.620;2023-02-11T02:30:50;96955.81;;;23.06;27.47
22389;BME280;11362;48.102;11.620;2023-02-11T02:35:45;96943.09;;;23.05;27.08
22389;BME280;11362;48.102;11.620;2023-02-11T02:38:20;96943.09;;;23.05;27.37
22389;BME280;11362;48.102;11.620;2023-02-11T02:40:50;96943.09;;;23.05;27.30
22389;BME280;11362;48.102;11.620;2023-02-11T02:43:18;96941.50;;;23.04;27.22
22389;BME280;11362;48.102;11.620;2023-02-11T02:45:44;96938.75;;;23.04;26.95
22389;BME280;11362;48.102;11.620;2023-02-11T02:48:42;96931.25;;;23.04;26.79
22389;BME280;11362;48.102;11.620;2023-02-11T02:51:22;96930.44;;;23.04;26.79
22389;BME280;11362;48.102;11.620;2023-02-11T02:57:08;96940.34;;;23.05;27.20
22389;BME280;11362;48.102;11.620;2023-02-11T02:59:49;96925.28;;;23.02;27.65
22389;BME280;11362;48.102;11.620;2023-02-11T03:05:10;96924.88;;;23.04;27.28
22389;BME280;11362;48.102;11.620;2023-02-11T03:07:41;96916.16;;;23.02;27.26
22389;BME280;11362;48.102;11.620;2023-02-11T03:10:14;96922.50;;;23.02;27.01
22389;BME280;11362;48.102;11.620;2023-02-11T03:12:43;96918.09;;;23.01;27.19
22389;BME280;11362;48.102;11.620;2023-02-11T03:15:10;96909.00;;;23.01;26.92
22389;BME280;11362;48.102;11.620;2023-02-11T03:17:38;96912.97;;;23.00;26.85
22389;BME280;11362;48.102;11.620;2023-02-11T03:20:05;96904.25;;;23.01;27.35
22389;BME280;11362;48.102;11.620;2023-02-11T03:22:39;96903.47;;;23.01;27.55
22389;BME280;11362;48.102;11.620;2023-02-11T03:25:05;96898.72;;;23.01;27.31
22389;BME280;11362;48.102;11.620;2023-02-11T03:27:55;96895.94;;;23.01;27.11
22389;BME280;11362;48.102;11.620;2023-02-11T03:30:25;96895.16;;;23.01;26.98
22389;BME280;11362;48.102;11.620;2023-02-11T03:33:04;96889.25;;;23.02;27.42
22389;BME280;11362;48.102;11.620;2023-02-11T03:35:32;96873.41;;;23.03;27.56
22389;BME280;11362;48.102;11.620;2023-02-11T03:38:10;96882.88;;;23.02;27.12
22389;BME280;11362;48.102;11.620;2023-02-11T03:40:39;96886.06;;;23.04;27.02
22389;BME280;11362;48.102;11.620;2023-02-11T03:45:37;96888.44;;;23.02;26.91
22389;BME280;11362;48.102;11.620;2023-02-11T03:48:06;96895.56;;;23.03;26.99
22389;BME280;11362;48.102;11.620;2023-02-11T03:50:34;96907.84;;;23.02;27.02
22389;BME280;11362;48.102;11.620;2023-02-11T03:53:01;96893.97;;;23.02;27.26
22389;BME280;11362;48.102;11.620;2023-02-11T03:55:28;96891.22;;;23.02;27.06
22389;BME280;11362;48.102;11.620;2023-02-11T03:57:54;96898.72;;;23.01;27.18
22389;BME280;11362;48.102;11.620;2023-02-11T04:00:19;96901.13;;;23.03;26.78
22389;BME280;11362;48.102;11.620;2023-02-11T04:02:45;96903.53;;;23.04;26.98
22389;BME280;11362;48.102;11.620;2023-02-11T04:05:13;96899.53;;;23.02;26.86
22389;BME280;11362;48.102;11.620;2023-02-11T04:07:39;96908.25;;;23.04;26.95
22389;BME280;11362;48.102;11.620;2023-02-11T04:10:05;96903.09;;;23.02;26.88
22389;BME280;11362;48.102;11.620;2023-02-11T04:12:30;96901.13;;;23.03;27.43
22389;BME280;11362;48.102;11.620;2023-02-11T04:14:56;96902.28;;;23.02;26.87
22389;BME280;11362;48.102;11.620;2023-02-11T04:17:21;96906.66;;;23.03;26.86
22389;BME280;11362;48.102;11.620;2023-02-11T04:19:46;96906.66;;;23.03;26.67
22389;BME280;11362;48.102;11.620;2023-02-11T04:22:12;96906.66;;;23.03;27.10
22389;BME280;11362;48.102;11.620;2023-02-11T04:24:37;96905.06;;;23.02;26.84
22389;BME280;11362;48.102;11.620;2023-02-11T04:27:02;96910.59;;;23.02;27.18
22389;BME280;11362;48.102;11.620;2023-02-11T04:29:28;96916.16;;;23.02;27.17
22389;BME280;11362;48.102;11.620;2023-02-11T04:31:54;96921.31;;;23.03;26.71
22389;BME280;11362;48.102;11.620;2023-02-11T04:34:19;96916.97;;;23.02;26.78
22389;BME280;11362;48.102;11.620;2023-02-11T04:36:44;96912.19;;;23.03;26.59
22389;BME280;11362;48.102;11.620;2023-02-11T04:39:10;96907.47;;;23.03;26.59
22389;BME280;11362;48.102;11.620;2023-02-11T04:41:35;96928.47;;;23.04;26.78
22389;BME280;11362;48.102;11.620;2023-02-11T04:44:00;96925.63;;;23.01;26.97
22389;BME280;11362;48.102;11.620;2023-02-11T04:46:26;96910.59;;;23.02;27.11
22389;BME280;11362;48.102;11.620;2023-02-11T04:48:51;96927.25;;;23.02;26.87
22389;BME280;11362;48.102;11.620;2023-02-11T04:51:16;96926.41;;;23.01;26.95
22389;BME280;11362;48.102;11.620;2023-02-11T04:53:42;96935.56;;;23.02;26.54
22389;BME280;11362;48.102;11.620;2023-02-11T04:56:07;96941.50;;;23.04;26.28
22389;BME280;11362;48.102;11.620;2023-02-11T04:58:32;96950.22;;;23.02;26.63
22389;BME280;11362;48.102;11.620;2023-02-11T05:01:09;96945.81;;;23.01;26.94
22389;BME280;11362;48.102;11.620;2023-02-11T05:03:35;96944.69;;;23.02;26.67
22389;BME280;11362;48.102;11.620;2023-02-11T05:06:00;96952.59;;;23.04;26.91
22389;BME280;11362;48.102;11.620;2023-02-11T05:08:26;96951.00;;;23.03;26.82
22389;BME280;11362;48.102;11.620;2023-02-11T05:10:51;96946.28;;;23.03;26.85
22389;BME280;11362;48.102;11.620;2023-02-11T05:13:16;96947.06;;;23.04;26.92
22389;BME280;11362;48.102;11.620;2023-02-11T05:15:41;96939.13;;;23.02;27.07
22389;BME280;11362;48.102;11.620;2023-02-11T05:18:07;96948.22;;;23.03;27.06
22389;BME280;11362;48.102;11.620;2023-02-11T05:20:32;96935.56;;;23.02;27.21
22389;BME280;11362;48.102;11.620;2023-02-11T05:22:57;96928.84;;;23.03;26.81
22389;BME280;11362;48.102;11.620;2023-02-11T05:25:22;96934.00;;;23.04;26.96
22389;BME280;11362;48.102;11.620;2023-02-11T05:27:48;96921.69;;;23.02;26.94
22389;BME280;11362;48.102;11.620;2023-02-11T05:30:13;96922.50;;;23.02;26.79
22389;BME280;11362;48.102;11.620;2023-02-11T05:32:39;96918.56;;;23.03;26.78
22389;BME280;11362;48.102;11.620;2023-02-11T05:35:05;96921.69;;;23.02;26.76
22389;BME280;11362;48.102;11.620;2023-02-11T05:37:30;96927.25;;;23.02;26.69
22389;BME280;11362;48.102;11.620;2023-02-11T05:39:55;96922.50;;;23.02;26.66
22389;BME280;11362;48.102;11.620;2023-02-11T05:42:21;96916.16;;;23.02;26.53
22389;BME280;11362;48.102;11.620;2023-02-11T05:44:46;96925.28;;;23.02;26.91
22389;BME280;11362;48.102;11.620;2023-02-11T05:47:11;96910.59;;;23.02;26.75
22389;BME280;11362;48.102;11.620;2023-02-11T05:49:36;96905.06;;;23.02;26.76
22389;BME280;11362;48.102;11.620;2023-02-11T05:52:02;96905.06;;;23.02;26.54
22389;BME280;11362;48.102;11.620;2023-02-11T05:54:27;96920.16;;;23.04;26.40
22389;BME280;11362;48.102;11.620;2023-02-11T05:56:53;96927.66;;;23.04;26.31
22389;BME280;11362;48.102;11.620;2023-02-11T05:59:18;96919.34;;;23.04;26.52
22389;BME280;11362;48.102;11.620;2023-02-11T06:01:43;96915.78;;;23.03;26.47
22389;BME280;11362;48.102;11.620;2023-02-11T06:04:09;96907.84;;;23.02;26.24
22389;BME280;11362;48.102;11.620;2023-02-11T06:06:34;96913.78;;;23.04;26.37
22389;BME280;11362;48.102;11.620;2023-02-11T06:08:59;96905.88;;;23.02;26.28
22389;BME280;11362;48.102;11.620;2023-02-11T06:11:25;96905.88;;;23.02;26.05
22389;BME280;11362;48.102;11.620;2023-02-11T06:13:50;96904.31;;;23.05;26.49
22389;BME280;11362;48.102;11.620;2023-02-11T06:16:15;96911.03;;;23.04;26.52
22389;BME280;11362;48.102;11.620;2023-02-11T06:18:41;96914.59;;;23.04;26.34
22389;BME280;11362;48.102;11.620;2023-02-11T06:21:08;96903.09;;;23.02;26.68
22389;BME280;11362;48.102;11.620;2023-02-11T06:23:34;96911.84;;;23.04;26.31
22389;BME280;11362;48.102;11.620;2023-02-11T06:26:04;96908.25;;;23.04;26.73
22389;BME280;11362;48.102;11.620;2023-02-11T06:28:30;96911.84;;;23.04;26.35
22389;BME280;11362;48.102;11.620;2023-02-11T06:30:56;96912.19;;;23.03;26.21
22389;BME280;11362;48.102;11.620;2023-02-11T06:33:21;96911.84;;;23.04;26.31
22389;BME280;11362;48.102;11.620;2023-02-11T06:35:47;96911.41;;;23.02;26.45
22389;BME280;11362;48.102;11.620;2023-02-11T06:38:12;96914.97;;;23.03;26.45
22389;BME280;11362;48.102;11.620;2023-02-11T06:40:37;96919.34;;;23.04;27.07
22389;BME280;11362;48.102;11.620;2023-02-11T06:43:03;96920.50;;;23.03;26.66
22389;BME280;11362;48.102;11.620;2023-02-11T06:45:28;96913.78;;;23.04;26.73
22389;BME280;11362;48.102;11.620;2023-02-11T06:47:53;96905.88;;;23.02;26.47
22389;BME280;11362;48.102;11.620;2023-02-11T06:50:19;96900.34;;;23.02;26.70
22389;BME280;11362;48.102;11.620;2023-02-11T06:52:44;96894.78;;;23.02;26.45
22389;BME280;11362;48.102;11.620;2023-02-11T06:55:09;96901.13;;;23.03;26.79
22389;BME280;11362;48.102;11.620;2023-02-11T06:57:35;96908.25;;;23.04;26.62
22389;BME280;11362;48.102;11.620;2023-02-11T07:00:00;96901.94;;;23.03;26.50
22389;BME280;11362;48.102;11.620;2023-02-11T07:02:25;96913.00;;;23.03;26.47
22389;BME280;11362;48.102;11.620;2023-02-11T07:04:51;96928.84;;;23.03;26.16
22389;BME280;11362;48.102;11.620;2023-02-11T07:07:16;96930.44;;;23.04;26.49
22389;BME280;11362;48.102;11.620;2023-02-11T07:09:41;96931.59;;;23.03;26.22
22389;BME280;11362;48.102;11.620;2023-02-11T07:12:09;96936.38;;;23.02;26.39
22389;BME280;11362;48.102;11.620;2023-02-11T07:14:34;96938.31;;;23.02;26.22
22389;BME280;11362;48.102;11.620;2023-02-11T07:16:59;96938.75;;;23.04;26.15
22389;BME280;11362;48.102;11.620;2023-02-11T07:19:25;96923.28;;;23.03;26.41
22389;BME280;11362;48.102;11.620;2023-02-11T07:21:50;96916.97;;;23.02;26.25
22389;BME280;11362;48.102;11.620;2023-02-11T07:24:15;96920.16;;;23.04;26.58
22389;BME280;11362;48.102;11.620;2023-02-11T07:26:41;96922.09;;;23.04;26.86
22389;BME280;11362;48.102;11.620;2023-02-11T07:29:06;96913.78;;;23.04;26.68
22389;BME280;11362;48.102;11.620;2023-02-11T07:31:31;96911.03;;;23.04;26.49
22389;BME280;11362;48.102;11.620;2023-02-11T07:33:59;96889.28;;;23.06;26.64
22389;BME280;11362;48.102;11.620;2023-02-11T07:36:26;96879.00;;;23.06;27.42
22389;BME280;11362;48.102;11.620;2023-02-11T07:38:52;96845.38;;;23.08;27.51
22389;BME280;11362;48.102;11.620;2023-02-11T07:41:19;96865.19;;;23.10;27.44
22389;BME280;11362;48.102;11.620;2023-02-11T07:43:44;96909.16;;;23.11;27.47
22389;BME280;11362;48.102;11.620;2023-02-11T07:46:19;96915.94;;;23.14;27.79
22389;BME280;11362;48.102;11.620;2023-02-11T07:48:45;96913.63;;;23.16;28.04
22389;BME280;11362;48.102;11.620;2023-02-11T07:51:13;96923.53;;;23.17;28.13
22389;BME280;11362;48.102;11.620;2023-02-11T07:53:39;96928.69;;;23.18;28.29
22389;BME280;11362;48.102;11.620;2023-02-11T07:56:05;96923.56;;;23.20;28.76
22389;BME280;11362;48.102;11.620;2023-02-11T07:58:31;96920.44;;;23.22;28.64
22389;BME280;11362;48.102;11.620;2023-02-11T08:01:05;96920.84;;;23.24;28.52
22389;BME280;11362;48.102;11.620;2023-02-11T08:03:32;96918.06;;;23.24;28.75
22389;BME280;11362;48.102;11.620;2023-02-11T08:06:05;96885.63;;;23.24;29.10
22389;BME280;11362;48.102;11.620;2023-02-11T08:08:31;96874.91;;;23.23;28.58
22389;BME280;11362;48.102;11.620;2023-02-11T08:10:56;96834.50;;;23.22;28.85
22389;BME280;11362;48.102;11.620;2023-02-11T08:13:22;96830.50;;;23.19;28.62
22389;BME280;11362;48.102;11.620;2023-02-11T08:15:47;96826.13;;;23.18;28.29
22389;BME280;11362;48.102;11.620;2023-02-11T08:18:13;96854.63;;;23.19;28.57
22389;BME280;11362;48.102;11.620;2023-02-11T08:20:38;96856.22;;;23.20;28.11
22389;BME280;11362;48.102;11.620;2023-02-11T08:23:05;96875.63;;;23.20;28.38
22389;BME280;11362;48.102;11.620;2023-02-11T08:25:31;96880.03;;;23.21;28.49
22389;BME280;11362;48.102;11.620;2023-02-11T08:27:57;96876.06;;;23.22;28.52
22389;BME280;11362;48.102;11.620;2023-02-11T08:30:22;96873.72;;;23.24;28.08
22389;BME280;11362;48.102;11.620;2023-02-11T08:32:47;96869.75;;;23.25;28.24
22389;BME280;11362;48.102;11.620;2023-02-11T08:35:12;96856.31;;;23.27;28.40
22389;BME280;11362;48.102;11.620;2023-02-11T08:37:38;96853.53;;;23.27;28.45
22389;BME280;11362;48.102;11.620;2023-02-11T08:40:03;96872.22;;;23.30;28.51
22389;BME280;11362;48.102;11.620;2023-02-11T08:42:29;96888.03;;;23.29;28.38
22389;BME280;11362;48.102;11.620;2023-02-11T08:44:54;96893.59;;;23.29;28.64
22389;BME280;11362;48.102;11.620;2023-02-11T08:47:19;96906.28;;;23.30;28.57
22389;BME280;11362;48.102;11.620;2023-02-11T08:49:44;96907.09;;;23.31;28.78
22389;BME280;11362;48.102;11.620;2023-02-11T08:52:10;96898.75;;;23.31;29.20
22389;BME280;11362;48.102;11.620;2023-02-11T08:54:35;96911.44;;;23.32;28.88
22389;BME280;11362;48.102;11.620;2023-02-11T08:57:01;96914.22;;;23.32;29.54
22389;BME280;11362;48.102;11.620;2023-02-11T08:59:26;96916.63;;;23.33;29.29
22389;BME280;11362;48.102;11.620;2023-02-11T09:01:51;96922.19;;;23.33;29.19
22389;BME280;11362;48.102;11.620;2023-02-11T09:04:17;96909.50;;;23.32;29.48
22389;BME280;11362;48.102;11.620;2023-02-11T09:06:42;96919.75;;;23.32;29.06
22389;BME280;11362;48.102;11.620;2023-02-11T09:09:10;96912.63;;;23.31;29.76
22389;BME280;11362;48.102;11.620;2023-02-11T09:11:36;96918.22;;;23.34;29.81
22389;BME280;11362;48.102;11.620;2023-02-11T09:14:02;96904.34;;;23.34;30.06
22389;BME280;11362;48.102;11.620;2023-02-11T09:16:32;96908.34;;;23.37;30.12
22389;BME280;11362;48.102;11.620;2023-02-11T09:18:59;96899.22;;;23.36;30.41
22389;BME280;11362;48.102;11.620;2023-02-11T09:21:25;96896.84;;;23.35;30.13
22389;BME280;11362;48.102;11.620;2023-02-11T09:23:51;96888.53;;;23.35;30.27
22389;BME280;11362;48.102;11.620;2023-02-11T09:26:18;96884.13;;;23.33;30.50
22389;BME280;11362;48.102;11.620;2023-02-11T09:28:45;96886.91;;;23.33;31.00
22389;BME280;11362;48.102;11.620;2023-02-11T09:31:13;96884.13;;;23.33;30.80
22389;BME280;11362;48.102;11.620;2023-02-11T09:33:40;96888.09;;;23.33;30.87
22389;BME280;11362;48.102;11.620;2023-02-11T09:36:05;96884.53;;;23.32;30.73
22389;BME280;11362;48.102;11.620;2023-02-11T09:38:31;96881.38;;;23.33;31.39
22389;BME280;11362;48.102;11.620;2023-02-11T09:40:57;96883.81;;;23.38;31.13
22389;BME280;11362;48.102;11.620;2023-02-11T09:43:30;96876.34;;;23.42;31.51
22389;BME280;11362;48.102;11.620;2023-02-11T09:45:57;96887.44;;;23.42;31.66
22389;BME280;11362;48.102;11.620;2023-02-11T09:48:24;96875.59;;;23.45;31.72
22389;BME280;11362;48.102;11.620;2023-02-11T09:50:53;96872.81;;;23.45;31.67
22389;BME280;11362;48.102;11.620;2023-02-11T09:53:28;96865.28;;;23.46;32.01
22389;BME280;11362;48.102;11.620;2023-02-11T09:55:58;96872.44;;;23.47;32.31
22389;BME280;11362;48.102;11.620;2023-02-11T09:58:39;96878.75;;;23.47;32.43
22389;BME280;11362;48.102;11.620;2023-02-11T10:01:29;96884.31;;;23.47;32.22
22389;BME280;11362;48.102;11.620;2023-02-11T10:04:23;96875.63;;;23.49;32.39
22389;BME280;11362;48.102;11.620;2023-02-11T10:06:53;96871.66;;;23.50;32.29
22389;BME280;11362;48.102;11.620;2023-02-11T10:15:22;96829.78;;;23.58;31.50
22389;BME280;11362;48.102;11.620;2023-02-11T10:21:11;96855.44;;;23.48;31.44
22389;BME280;11362;48.102;11.620;2023-02-11T10:23:45;96866.06;;;23.46;31.45
22389;BME280;11362;48.102;11.620;2023-02-11T10:26:15;96865.28;;;23.46;31.60
22389;BME280;11362;48.102;11.620;2023-02-11T10:28:43;96868.44;;;23.44;31.38
22389;BME280;11362;48.102;11.620;2023-02-11T10:31:14;96856.53;;;23.44;31.64
22389;BME280;11362;48.102;11.620;2023-02-11T10:33:45;96851.81;;;23.44;31.94
22389;BME280;11362;48.102;11.620;2023-02-11T10:36:13;96838.31;;;23.43;31.78
22389;BME280;11362;48.102;11.620;2023-02-11T10:38:39;96833.16;;;23.42;31.60
22389;BME280;11362;48.102;11.620;2023-02-11T10:41:04;96853.34;;;23.42;31.35
22389;BME280;11362;48.102;11.620;2023-02-11T10:43:32;96857.31;;;23.41;31.33
22389;BME280;11362;48.102;11.620;2023-02-11T10:45:59;96849.34;;;23.39;31.37
22389;BME280;11362;48.102;11.620;2023-02-11T10:48:40;96835.97;;;23.45;31.18
22389;BME280;11362;48.102;11.620;2023-02-11T10:51:07;96839.19;;;23.50;31.07
22389;BME280;11362;48.102;11.620;2023-02-11T10:53:38;96836.78;;;23.49;31.20
22389;BME280;11362;48.102;11.620;2023-02-11T10:56:05;96838.34;;;23.46;31.36
22389;BME280;11362;48.102;11.620;2023-02-11T10:58:40;96853.84;;;23.51;31.44
22389;BME280;11362;48.102;11.620;2023-02-11T11:01:08;96852.69;;;23.52;31.33
22389;BME280;11362;48.102;11.620;2023-02-11T11:03:38;96841.59;;;23.55;31.66
22389;BME280;11362;48.102;11.620;2023-02-11T11:06:07;96836.88;;;23.56;31.68
22389;BME280;11362;48.102;11.620;2023-02-11T11:08:44;96830.50;;;23.55;32.29
22389;BME280;11362;48.102;11.620;2023-02-11T11:11:14;96824.16;;;23.51;32.84
22389;BME280;11362;48.102;11.620;2023-02-11T11:14:00;96827.28;;;23.50;33.10
22389;BME280;11362;48.102;11.620;2023-02-11T11:16:32;96845.47;;;23.47;33.18
22389;BME280;11362;48.102;11.620;2023-02-11T11:21:53;96821.66;;;23.43;31.78
22389;BME280;11362;48.102;11.620;2023-02-11T11:24:38;96783.25;;;23.42;31.71
22389;BME280;11362;48.102;11.620;2023-02-11T11:27:05;96802.66;;;23.42;31.95
22389;BME280;11362;48.102;11.620;2023-02-11T11:29:55;96788.38;;;23.43;31.66
22389;BME280;11362;48.102;11.620;2023-02-11T11:32:23;96780.47;;;23.42;31.54
22389;BME280;11362;48.102;11.620;2023-02-11T11:34:54;96798.66;;;23.39;31.37
22389;BME280;11362;48.102;11.620;2023-02-11T11:42:33;96799.41;;;23.36;31.63
22389;BME280;11362;48.102;11.620;2023-02-11T11:45:17;96802.16;;;23.36;31.45
22389;BME280;11362;48.102;11.620;2023-02-11T11:47:57;96803.81;;;23.40;31.55
22389;BME280;11362;48.102;11.620;2023-02-11T11:50:41;96799.44;;;23.39;31.53
22389;BME280;11362;48.102;11.620;2023-02-11T11:55:38;96811.34;;;23.40;30.94
22389;BME280;11362;48.102;11.620;2023-02-11T11:58:18;96811.34;;;23.40;30.96
22389;BME280;11362;48.102;11.620;2023-02-11T12:01:04;96816.88;;;23.40;31.05
22389;BME280;11362;48.102;11.620;2023-02-11T12:06:32;96810.56;;;23.43;30.85
22389;BME280;11362;48.102;11.620;2023-02-11T12:12:20;96805.75;;;23.37;31.09
22389;BME280;11362;48.102;11.620;2023-02-11T12:14:58;96793.84;;;23.36;31.13
22389;BME280;11362;48.102;11.620;2023-02-11T12:17:53;96792.63;;;23.33;31.08
22389;BME280;11362;48.102;11.620;2023-02-11T12:20:58;96800.16;;;23.33;31.10
22389;BME280;11362;48.102;11.620;2023-02-11T12:26:17;96793.41;;;23.31;31.04
22389;BME280;11362;48.102;11.620;2023-02-11T12:31:47;96798.94;;;23.31;30.99
22389;BME280;11362;48.102;11.620;2023-02-11T12:39:50;96771.22;;;23.31;31.07
22389;BME280;11362;48.102;11.620;2023-02-11T12:50:26;96761.31;;;23.30;30.98
22389;BME280;11362;48.102;11.620;2023-02-11T12:53:14;96764.44;;;23.28;30.83
22389;BME280;11362;48.102;11.620;2023-02-11T12:55:45;96760.91;;;23.28;30.78
22389;BME280;11362;48.102;11.620;2023-02-11T12:58:17;96750.97;;;23.27;30.69
22389;BME280;11362;48.102;11.620;2023-02-11T13:00:57;96755.34;;;23.28;30.76
22389;BME280;11362;48.102;11.620;2023-02-11T13:03:42;96754.53;;;23.27;30.70
22389;BME280;11362;48.102;11.620;2023-02-11T13:06:16;96752.56;;;23.28;30.66
22389;BME280;11362;48.102;11.620;2023-02-11T13:08:47;96751.75;;;23.27;30.83
22389;BME280;11362;48.102;11.620;2023-02-11T13:11:21;96746.22;;;23.27;30.88
22389;BME280;11362;48.102;11.620;2023-02-11T13:13:52;96747.03;;;23.28;30.72
22389;BME280;11362;48.102;11.620;2023-02-11T13:16:41;96749.00;;;23.27;30.56
22389;BME280;11362;48.102;11.620;2023-02-11T13:27:09;96731.63;;;23.33;30.33
22389;BME280;11362;48.102;11.620;2023-02-11T13:32:16;96729.00;;;23.47;29.92
22389;BME280;11362;48.102;11.620;2023-02-11T13:40:06;96713.22;;;23.55;29.87
22389;BME280;11362;48.102;11.620;2023-02-11T13:43:01;96719.53;;;23.48;29.72
22389;BME280;11362;48.102;11.620;2023-02-11T13:48:01;96728.59;;;23.45;30.01
22389;BME280;11362;48.102;11.620;2023-02-11T13:50:31;96723.81;;;23.42;30.00
22389;BME280;11362;48.102;11.620;2023-02-11T13:53:02;96719.44;;;23.42;29.80
22389;BME280;11362;48.102;11.620;2023-02-11T13:55:29;96721.78;;;23.39;29.86
22389;BME280;11362;48.102;11.620;2023-02-11T14:00:52;96714.25;;;23.37;30.14
22389;BME280;11362;48.102;11.620;2023-02-11T14:03:23;96721.34;;;23.34;30.10
22389;BME280;11362;48.102;11.620;2023-02-11T14:08:33;96717.75;;;23.33;30.23
22389;BME280;11362;48.102;11.620;2023-02-11T14:11:05;96729.66;;;23.34;30.07
22389;BME280;11362;48.102;11.620;2023-02-11T14:13:34;96721.72;;;23.33;29.88
22389;BME280;11362;48.102;11.620;2023-02-11T14:16:17;96709.03;;;23.32;30.06
22389;BME280;11362;48.102;11.620;2023-02-11T14:21:31;96709.03;;;23.32;29.86
22389;BME280;11362;48.102;11.620;2023-02-11T14:29:12;96713.75;;;23.28;29.82
22389;BME280;11362;48.102;11.620;2023-02-11T14:32:03;96727.63;;;23.28;30.00
22389;BME280;11362;48.102;11.620;2023-02-11T14:34:54;96733.53;;;23.26;29.77
22389;BME280;11362;48.102;11.620;2023-02-11T14:37:41;96738.28;;;23.26;29.91